createdAt,value
2016-02-25T00:00:09.412Z,0
2016-02-25T00:01:10.055Z,0
2016-02-25T00:02:22.357Z,0
2016-02-25T00:03:10.889Z,0
2016-02-25T00:05:37.772Z,0
2016-02-25T00:08:24.155Z,0
2016-02-25T00:08:59.233Z,0
2016-02-25T00:10:30.582Z,0
2016-02-25T00:11:12.222Z,0
2016-02-25T00:11:59.273Z,0
2016-02-25T00:13:12.447Z,0
2016-02-25T00:15:19.064Z,0
2016-02-25T00:16:03.096Z,0
2016-02-25T00:17:42.758Z,0
2016-02-25T00:17:55.320Z,0
2016-02-25T00:20:10.575Z,0
2016-02-25T00:21:10.530Z,0
2016-02-25T00:23:06.880Z,0
2016-02-25T00:23:22.257Z,0
2016-02-25T00:24:20.870Z,0
2016-02-25T00:25:40.060Z,0
2016-02-25T00:26:21.454Z,0
2016-02-25T00:28:17.925Z,0
2016-02-25T00:28:30.584Z,0
2016-02-25T00:30:33.745Z,0
2016-02-25T00:31:46.310Z,0
2016-02-25T00:32:59.063Z,0
2016-02-25T00:33:52.597Z,0
2016-02-25T00:35:05.553Z,0
2016-02-25T00:35:59.087Z,0
2016-02-25T00:37:17.698Z,0
2016-02-25T00:37:49.671Z,0
2016-02-25T00:39:46.661Z,0
2016-02-25T00:40:05.520Z,0
2016-02-25T00:40:59.225Z,0
2016-02-25T00:42:18.494Z,0
2016-02-25T00:43:05.559Z,0
2016-02-25T00:44:24.970Z,0
2016-02-25T00:45:18.470Z,0
2016-02-25T00:46:30.600Z,0
2016-02-25T00:47:25.042Z,0
2016-02-25T00:48:30.841Z,0
2016-02-25T00:49:30.484Z,0
2016-02-25T00:49:59.797Z,0
2016-02-25T00:50:59.424Z,0
2016-02-25T00:52:00.771Z,0
2016-02-25T00:53:05.727Z,0
2016-02-25T00:54:12.119Z,0
2016-02-25T00:56:21.706Z,0
2016-02-25T00:57:15.268Z,0
2016-02-25T00:59:24.448Z,0
2016-02-25T00:59:49.964Z,0
2016-02-25T01:01:48.298Z,0
2016-02-25T01:02:00.876Z,0
2016-02-25T01:04:10.584Z,0
2016-02-25T01:04:23.384Z,0
2016-02-25T01:05:23.136Z,0
2016-02-25T01:06:35.889Z,0
2016-02-25T01:07:29.439Z,0
2016-02-25T01:08:48.879Z,0
2016-02-25T01:09:35.772Z,0
2016-02-25T01:11:29.762Z,0
2016-02-25T01:11:48.887Z,0
2016-02-25T01:13:45.673Z,0
2016-02-25T01:13:58.220Z,0
2016-02-25T01:16:00.850Z,0
2016-02-25T01:16:13.678Z,0
2016-02-25T01:17:13.494Z,0
2016-02-25T01:18:19.809Z,0
2016-02-25T01:19:19.952Z,0
2016-02-25T01:20:26.442Z,0
2016-02-25T01:21:32.680Z,0
2016-02-25T01:22:48.510Z,0
2016-02-25T01:23:42.935Z,0
2016-02-25T01:24:35.782Z,0
2016-02-25T01:25:50.971Z,0
2016-02-25T01:26:39.349Z,0
2016-02-25T01:27:19.662Z,0
2016-02-25T01:28:45.558Z,0
2016-02-25T01:29:29.513Z,0
2016-02-25T01:31:20.782Z,0
2016-02-25T01:31:34.362Z,0
2016-02-25T01:32:53.021Z,0
2016-02-25T01:34:02.399Z,0
2016-02-25T01:34:46.246Z,0
2016-02-25T01:35:46.295Z,0
2016-02-25T01:36:46.485Z,0
2016-02-25T01:37:59.285Z,0
2016-02-25T01:38:46.506Z,0
2016-02-25T01:41:02.418Z,0
2016-02-25T01:42:14.906Z,0
2016-02-25T01:43:02.783Z,0
2016-02-25T01:45:11.882Z,0
2016-02-25T01:46:08.479Z,0
2016-02-25T01:46:37.200Z,0
2016-02-25T01:47:37.499Z,0
2016-02-25T01:48:43.580Z,0
2016-02-25T01:49:37.880Z,0
2016-02-25T01:50:43.758Z,0
2016-02-25T01:51:37.448Z,0
2016-02-25T01:52:50.044Z,0
2016-02-25T01:53:50.094Z,0
2016-02-25T01:55:02.955Z,0
2016-02-25T01:57:37.573Z,0
2016-02-25T01:57:50.557Z,0
2016-02-25T01:59:22.513Z,0
2016-02-25T02:00:00.844Z,0
2016-02-25T02:02:03.552Z,0
2016-02-25T02:02:16.209Z,0
2016-02-25T02:03:16.118Z,0
2016-02-25T02:04:16.449Z,0
2016-02-25T02:05:16.015Z,0
2016-02-25T02:06:16.837Z,0
2016-02-25T02:07:16.978Z,0
2016-02-25T02:08:17.108Z,0
2016-02-25T02:09:22.679Z,0
2016-02-25T02:10:18.144Z,0
2016-02-25T02:11:35.446Z,0
2016-02-25T02:12:16.492Z,0
2016-02-25T02:13:35.482Z,0
2016-02-25T02:14:51.282Z,0
2016-02-25T02:15:38.535Z,0
2016-02-25T02:16:19.347Z,0
2016-02-25T02:18:16.383Z,0
2016-02-25T02:18:48.183Z,0
2016-02-25T02:20:49.080Z,0
2016-02-25T02:21:48.833Z,0
2016-02-25T02:22:48.851Z,0
2016-02-25T02:23:49.978Z,0
2016-02-25T02:24:48.262Z,0
2016-02-25T02:26:01.062Z,0
2016-02-25T02:26:48.923Z,0
2016-02-25T02:28:48.351Z,0
2016-02-25T02:29:20.163Z,0
2016-02-25T02:32:14.203Z,0
2016-02-25T02:33:29.756Z,0
2016-02-25T02:34:23.381Z,0
2016-02-25T02:36:39.373Z,0
2016-02-25T02:37:39.234Z,0
2016-02-25T02:38:40.050Z,0
2016-02-25T02:39:40.037Z,0
2016-02-25T02:40:52.227Z,0
2016-02-25T02:41:52.167Z,0
2016-02-25T02:42:58.701Z,0
2016-02-25T02:43:58.673Z,0
2016-02-25T02:44:58.753Z,0
2016-02-25T02:45:42.724Z,0
2016-02-25T02:46:42.916Z,0
2016-02-25T02:47:49.152Z,0
2016-02-25T02:48:44.092Z,0
2016-02-25T02:49:44.313Z,0
2016-02-25T02:50:42.707Z,0
2016-02-25T02:51:49.163Z,0
2016-02-25T02:52:49.087Z,0
2016-02-25T02:53:44.121Z,0
2016-02-25T02:54:42.765Z,0
2016-02-25T02:55:55.486Z,0
2016-02-25T02:56:55.488Z,0
2016-02-25T02:58:02.070Z,0
2016-02-25T02:58:55.509Z,0
2016-02-25T02:59:42.871Z,0
2016-02-25T03:01:02.202Z,0
2016-02-25T03:01:42.861Z,0
2016-02-25T03:03:14.114Z,0
2016-02-25T03:03:42.898Z,0
2016-02-25T03:04:44.275Z,0
2016-02-25T03:05:43.081Z,0
2016-02-25T03:07:14.505Z,0
2016-02-25T03:07:43.132Z,0
2016-02-25T03:09:49.153Z,0
2016-02-25T03:10:42.938Z,0
2016-02-25T03:12:02.175Z,0
2016-02-25T03:12:55.708Z,0
2016-02-25T03:14:02.133Z,0
2016-02-25T03:15:04.010Z,0
2016-02-25T03:16:45.563Z,0
2016-02-25T03:17:17.329Z,0
2016-02-25T03:17:58.144Z,0
2016-02-25T03:19:23.896Z,0
2016-02-25T03:20:04.462Z,0
2016-02-25T03:22:00.779Z,0
2016-02-25T03:22:13.357Z,0
2016-02-25T03:23:26.113Z,0
2016-02-25T03:24:14.051Z,0
2016-02-25T03:25:32.931Z,0
2016-02-25T03:26:14.634Z,0
2016-02-25T03:28:48.470Z,0
2016-02-25T03:29:42.206Z,0
2016-02-25T03:31:54.290Z,0
2016-02-25T03:32:23.009Z,0
2016-02-25T03:33:24.403Z,0
2016-02-25T03:34:23.015Z,0
2016-02-25T03:35:23.018Z,0
2016-02-25T03:36:29.320Z,0
2016-02-25T03:37:24.539Z,0
2016-02-25T03:38:23.151Z,0
2016-02-25T03:39:26.186Z,0
2016-02-25T03:40:36.064Z,0
2016-02-25T03:41:35.864Z,0
2016-02-25T03:42:42.727Z,0
2016-02-25T03:43:45.839Z,0
2016-02-25T03:44:45.811Z,0
2016-02-25T03:45:52.172Z,0
2016-02-25T03:46:48.768Z,0
2016-02-25T03:48:01.755Z,0
2016-02-25T03:48:45.633Z,0
2016-02-25T03:49:58.480Z,0
2016-02-25T03:50:51.920Z,0
2016-02-25T03:51:45.891Z,0
2016-02-25T03:52:58.456Z,0
2016-02-25T03:53:58.413Z,0
2016-02-25T03:55:04.899Z,0
2016-02-25T03:56:04.887Z,0
2016-02-25T03:57:04.951Z,0
2016-02-25T03:58:05.142Z,0
2016-02-25T03:58:45.785Z,0
2016-02-25T04:00:11.428Z,0
2016-02-25T04:01:21.415Z,0
2016-02-25T04:02:14.700Z,0
2016-02-25T04:02:55.468Z,0
2016-02-25T04:04:52.348Z,0
2016-02-25T04:05:24.117Z,0
2016-02-25T04:06:17.947Z,0
2016-02-25T04:07:30.890Z,0
2016-02-25T04:08:24.156Z,0
2016-02-25T04:09:37.131Z,0
2016-02-25T04:10:36.320Z,0
2016-02-25T04:11:04.977Z,0
2016-02-25T04:13:11.497Z,0
2016-02-25T04:14:23.719Z,0
2016-02-25T04:16:07.694Z,0
2016-02-25T04:17:07.633Z,0
2016-02-25T04:18:07.683Z,0
2016-02-25T04:19:08.233Z,0
2016-02-25T04:20:20.392Z,0
2016-02-25T04:21:14.222Z,0
2016-02-25T04:22:07.662Z,0
2016-02-25T04:23:07.712Z,0
2016-02-25T04:24:20.449Z,0
2016-02-25T04:25:07.732Z,0
2016-02-25T04:26:26.907Z,0
2016-02-25T04:27:07.739Z,0
2016-02-25T04:28:27.241Z,0
2016-02-25T04:29:43.340Z,0
2016-02-25T04:30:30.374Z,0
2016-02-25T04:31:11.171Z,0
2016-02-25T04:32:30.614Z,0
2016-02-25T04:33:36.757Z,0
2016-02-25T04:34:46.306Z,0
2016-02-25T04:35:55.715Z,0
2016-02-25T04:36:39.609Z,0
2016-02-25T04:37:39.612Z,0
2016-02-25T04:38:52.598Z,0
2016-02-25T04:39:52.336Z,0
2016-02-25T04:41:05.323Z,0
2016-02-25T04:41:58.857Z,0
2016-02-25T04:45:54.086Z,0
2016-02-25T04:46:54.105Z,0
2016-02-25T04:48:06.842Z,0
2016-02-25T04:49:00.422Z,0
2016-02-25T04:51:31.572Z,0
2016-02-25T04:52:12.588Z,0
2016-02-25T04:53:38.076Z,0
2016-02-25T04:54:47.891Z,0
2016-02-25T04:58:05.681Z,0
2016-02-25T04:58:46.481Z,0
2016-02-25T05:00:43.502Z,0
2016-02-25T05:04:50.309Z,0
2016-02-25T05:06:25.312Z,0
2016-02-25T05:09:02.867Z,0
2016-02-25T05:09:43.667Z,0
2016-02-25T05:11:46.297Z,0
2016-02-25T05:12:24.562Z,0
2016-02-25T05:12:59.112Z,0
2016-02-25T05:15:01.134Z,0
2016-02-25T05:15:26.431Z,0
2016-02-25T05:17:39.172Z,0
2016-02-25T05:18:39.441Z,0
2016-02-25T05:19:26.488Z,0
2016-02-25T05:20:45.697Z,0
2016-02-25T05:21:32.761Z,0
2016-02-25T05:23:41.970Z,0
2016-02-25T05:24:07.345Z,0
2016-02-25T05:24:54.738Z,0
2016-02-25T05:26:13.757Z,0
2016-02-25T05:27:01.432Z,0
2016-02-25T05:28:51.546Z,0
2016-02-25T05:30:01.111Z,0
2016-02-25T05:30:33.286Z,0
2016-02-25T05:31:14.099Z,0
2016-02-25T05:33:11.103Z,0
2016-02-25T05:35:18.124Z,0
2016-02-25T05:35:43.424Z,0
2016-02-25T05:37:02.005Z,0
2016-02-25T05:37:58.617Z,0
2016-02-25T05:42:11.268Z,0
2016-02-25T05:44:21.211Z,0
2016-02-25T05:45:30.792Z,0
2016-02-25T05:48:11.878Z,4
2016-02-25T05:48:46.208Z,0
2016-02-25T05:50:48.933Z,4
2016-02-25T05:51:27.355Z,0
2016-02-25T05:52:01.702Z,4
2016-02-25T05:54:04.317Z,4
2016-02-25T05:54:36.177Z,4
2016-02-25T05:55:16.896Z,8
2016-02-25T05:57:45.671Z,8
2016-02-25T06:00:13.442Z,16
2016-02-25T06:02:42.356Z,20
2016-02-25T06:02:55.184Z,24
2016-02-25T06:05:10.159Z,32
2016-02-25T06:06:10.177Z,40
2016-02-25T06:07:22.914Z,48
2016-02-25T06:08:16.557Z,52
2016-02-25T06:09:29.403Z,64
2016-02-25T06:10:29.407Z,72
2016-02-25T06:11:35.896Z,88
2016-02-25T06:12:10.256Z,96
2016-02-25T06:13:41.558Z,116
2016-02-25T06:14:13.448Z,120
2016-02-25T06:16:16.609Z,156
2016-02-25T06:16:29.234Z,160
2016-02-25T06:18:26.178Z,200
2016-02-25T06:18:41.806Z,204
2016-02-25T06:19:38.761Z,228
2016-02-25T06:20:45.030Z,248
2016-02-25T06:21:38.564Z,276
2016-02-25T06:22:51.519Z,312
2016-02-25T06:23:38.960Z,332
2016-02-25T06:25:04.494Z,376
2016-02-25T06:26:14.043Z,400
2016-02-25T06:29:00.567Z,516
2016-02-25T06:30:00.538Z,552
2016-02-25T06:31:06.807Z,596
2016-02-25T06:32:01.387Z,636
2016-02-25T06:33:13.343Z,680
2016-02-25T06:34:13.330Z,724
2016-02-25T06:35:00.817Z,764
2016-02-25T06:36:26.460Z,840
2016-02-25T06:37:36.090Z,872
2016-02-25T06:38:29.606Z,940
2016-02-25T06:39:10.375Z,976
2016-02-25T06:41:13.021Z,1092
2016-02-25T06:41:51.289Z,1132
2016-02-25T06:42:25.586Z,1172
2016-02-25T06:43:25.839Z,1232
2016-02-25T06:44:26.263Z,1300
2016-02-25T06:46:29.690Z,1424
2016-02-25T06:47:07.959Z,1448
2016-02-25T06:47:42.696Z,1476
2016-02-25T06:49:39.311Z,1604
2016-02-25T06:49:52.123Z,1656
2016-02-25T06:51:48.879Z,1752
2016-02-25T06:52:01.426Z,1784
2016-02-25T06:53:58.431Z,1876
2016-02-25T06:54:10.994Z,1932
2016-02-25T06:56:13.716Z,2032
2016-02-25T06:56:26.310Z,2044
2016-02-25T06:57:26.361Z,2120
2016-02-25T06:58:32.598Z,2188
2016-02-25T06:59:32.595Z,2288
2016-02-25T07:04:01.116Z,2976
2016-02-25T07:05:14.349Z,3020
2016-02-25T07:05:49.634Z,2996
2016-02-25T07:07:51.004Z,2396
2016-02-25T07:08:03.566Z,2452
2016-02-25T07:09:03.596Z,2444
2016-02-25T07:10:03.581Z,2696
2016-02-25T07:11:16.316Z,3128
2016-02-25T07:12:04.192Z,3144
2016-02-25T07:13:29.459Z,3328
2016-02-25T07:14:04.273Z,3788
2016-02-25T07:16:00.697Z,5028
2016-02-25T07:16:13.276Z,5268
2016-02-25T07:17:13.310Z,5128
2016-02-25T07:18:32.389Z,5612
2016-02-25T07:19:16.267Z,6444
2016-02-25T07:20:42.179Z,7012
2016-02-25T07:21:16.304Z,6904
2016-02-25T07:23:18.919Z,4704
2016-02-25T07:23:50.687Z,4116
2016-02-25T07:24:31.531Z,4028
2016-02-25T07:25:57.191Z,3772
2016-02-25T07:26:44.304Z,4056
2016-02-25T07:29:12.387Z,3932
2016-02-25T07:29:46.733Z,3764
2016-02-25T07:31:49.411Z,3612
2016-02-25T07:32:02.068Z,3656
2016-02-25T07:33:01.805Z,4000
2016-02-25T07:34:01.916Z,3972
2016-02-25T07:35:01.857Z,4264
2016-02-25T07:36:01.890Z,4200
2016-02-25T07:37:21.081Z,4184
2016-02-25T07:38:02.537Z,4312
2016-02-25T07:39:27.649Z,4076
2016-02-25T07:40:30.792Z,4336
2016-02-25T07:41:30.717Z,4836
2016-02-25T07:42:12.937Z,5448
2016-02-25T07:43:37.318Z,4456
2016-02-25T07:45:49.886Z,3860
2016-02-25T07:47:09.076Z,4268
2016-02-25T07:47:49.892Z,4296
2016-02-25T07:50:03.006Z,5812
2016-02-25T07:51:18.993Z,6092
2016-02-25T07:52:05.872Z,6892
2016-02-25T07:54:35.002Z,6124
2016-02-25T07:57:14.822Z,7092
2016-02-25T07:57:43.480Z,7304
2016-02-25T07:59:43.721Z,6500
2016-02-25T08:00:43.536Z,6840
2016-02-25T08:01:43.648Z,7248
2016-02-25T08:02:44.979Z,6848
2016-02-25T08:03:56.325Z,7132
2016-02-25T08:04:44.547Z,7492
2016-02-25T08:06:02.596Z,7736
2016-02-25T08:06:45.037Z,7804
2016-02-25T08:08:09.382Z,7592
2016-02-25T08:08:46.651Z,7452
2016-02-25T08:10:15.623Z,7232
2016-02-25T08:10:59.626Z,7316
2016-02-25T08:11:59.503Z,7604
2016-02-25T08:12:59.646Z,7608
2016-02-25T08:14:05.868Z,7684
2016-02-25T08:15:18.792Z,7736
2016-02-25T08:16:01.123Z,8020
2016-02-25T08:17:25.313Z,7736
2016-02-25T08:18:01.159Z,7648
2016-02-25T08:19:30.975Z,7676
2016-02-25T08:20:02.711Z,7856
2016-02-25T08:21:30.965Z,7944
2016-02-25T08:22:07.373Z,7756
2016-02-25T08:22:59.673Z,7440
2016-02-25T08:24:19.082Z,7020
2016-02-25T08:25:12.428Z,6596
2016-02-25T08:26:31.041Z,6412
2016-02-25T08:27:12.653Z,6352
2016-02-25T08:28:00.140Z,6388
2016-02-25T08:30:35.192Z,6820
2016-02-25T08:31:19.101Z,7672
2016-02-25T08:32:19.166Z,8292
2016-02-25T08:33:19.121Z,8920
2016-02-25T08:34:25.468Z,9300
2016-02-25T08:35:19.158Z,8928
2016-02-25T08:36:25.646Z,8144
2016-02-25T08:37:19.180Z,7784
2016-02-25T08:38:32.042Z,7732
2016-02-25T08:39:19.388Z,7912
2016-02-25T08:40:19.235Z,8060
2016-02-25T08:41:19.269Z,8240
2016-02-25T08:42:19.271Z,8192
2016-02-25T08:43:19.492Z,7900
2016-02-25T08:44:19.277Z,7572
2016-02-25T08:45:19.279Z,7832
2016-02-25T08:46:19.345Z,8388
2016-02-25T08:47:32.082Z,8704
2016-02-25T08:48:26.100Z,9224
2016-02-25T08:49:19.368Z,9104
2016-02-25T08:50:38.808Z,7464
2016-02-25T08:51:19.451Z,7036
2016-02-25T08:52:19.439Z,6428
2016-02-25T08:53:25.738Z,6156
2016-02-25T08:54:19.491Z,7012
2016-02-25T08:55:32.197Z,8620
2016-02-25T08:56:25.747Z,9372
2016-02-25T08:57:19.515Z,10516
2016-02-25T08:58:32.392Z,8920
2016-02-25T08:59:19.505Z,7712
2016-02-25T09:00:38.741Z,6296
2016-02-25T09:01:22.447Z,5580
2016-02-25T09:03:28.952Z,4804
2016-02-25T09:05:24.427Z,6604
2016-02-25T09:07:12.261Z,9208
2016-02-25T09:08:21.904Z,11288
2016-02-25T09:09:53.799Z,9276
2016-02-25T09:11:06.396Z,9296
2016-02-25T09:12:34.680Z,7844
2016-02-25T09:13:13.010Z,7852
2016-02-25T09:13:47.451Z,8696
2016-02-25T09:15:18.578Z,12788
2016-02-25T09:15:56.847Z,11312
2016-02-25T09:17:53.821Z,10284
2016-02-25T09:18:09.415Z,9000
2016-02-25T09:19:57.765Z,10720
2016-02-25T09:20:16.812Z,11280
2016-02-25T09:22:12.973Z,11716
2016-02-25T09:22:56.851Z,11004
2016-02-25T09:23:25.648Z,11228
2016-02-25T09:25:41.075Z,10808
2016-02-25T09:26:40.828Z,9832
2016-02-25T09:27:53.848Z,8224
2016-02-25T09:28:41.848Z,6644
2016-02-25T09:29:55.120Z,6288
2016-02-25T09:30:42.026Z,6768
2016-02-25T09:32:12.297Z,8052
2016-02-25T09:32:41.516Z,7532
2016-02-25T09:34:12.286Z,5704
2016-02-25T09:34:47.505Z,5148
2016-02-25T09:35:41.275Z,6836
2016-02-25T09:36:41.042Z,9512
2016-02-25T09:37:53.811Z,7940
2016-02-25T09:38:41.313Z,7164
2016-02-25T09:40:06.755Z,8044
2016-02-25T09:40:41.927Z,9340
2016-02-25T09:42:06.793Z,10864
2016-02-25T09:42:50.683Z,8984
2016-02-25T09:43:50.717Z,10432
2016-02-25T09:44:50.891Z,8808
2016-02-25T09:46:03.694Z,7948
2016-02-25T09:46:50.757Z,7884
2016-02-25T09:48:10.090Z,8920
2016-02-25T09:48:51.246Z,8348
2016-02-25T09:51:05.973Z,11756
2016-02-25T09:53:02.979Z,11852
2016-02-25T09:54:13.044Z,13192
2016-02-25T09:55:22.906Z,11720
2016-02-25T09:56:32.892Z,9928
2016-02-25T09:58:58.367Z,12472
2016-02-25T10:00:17.544Z,10000
2016-02-25T10:01:11.375Z,9408
2016-02-25T10:03:13.850Z,11476
2016-02-25T10:05:16.917Z,9968
2016-02-25T10:05:29.839Z,10216
2016-02-25T10:06:54.623Z,9144
2016-02-25T10:07:31.172Z,8972
2016-02-25T10:08:55.503Z,10124
2016-02-25T10:09:32.787Z,10592
2016-02-25T10:11:32.355Z,10684
2016-02-25T10:12:04.608Z,10672
2016-02-25T10:12:45.155Z,11008
2016-02-25T10:14:49.238Z,8116
2016-02-25T10:15:33.116Z,7888
2016-02-25T10:16:02.147Z,8040
2016-02-25T10:18:17.343Z,7412
2016-02-25T10:19:17.377Z,7360
2016-02-25T10:21:21.382Z,7344
2016-02-25T10:21:59.835Z,6444
2016-02-25T10:22:34.213Z,4756
2016-02-25T10:24:36.859Z,3520
2016-02-25T10:25:15.143Z,4352
2016-02-25T10:25:49.440Z,5460
2016-02-25T10:27:20.804Z,6240
2016-02-25T10:27:49.492Z,5716
2016-02-25T10:28:49.510Z,6008
2016-02-25T10:29:49.512Z,6712
2016-02-25T10:30:56.031Z,6204
2016-02-25T10:31:50.143Z,4900
2016-02-25T10:32:49.584Z,5140
2016-02-25T10:33:49.680Z,6128
2016-02-25T10:34:49.589Z,7428
2016-02-25T10:35:49.623Z,8164
2016-02-25T10:36:49.844Z,7180
2016-02-25T10:38:02.362Z,7164
2016-02-25T10:38:55.927Z,5976
2016-02-25T10:41:12.139Z,7004
2016-02-25T10:41:55.998Z,6440
2016-02-25T10:43:08.770Z,6296
2016-02-25T10:43:40.348Z,6036
2016-02-25T10:44:27.585Z,5004
2016-02-25T10:46:37.231Z,4620
2016-02-25T10:49:49.488Z,6680
2016-02-25T10:50:30.866Z,7504
2016-02-25T10:52:58.778Z,8428
2016-02-25T10:53:33.296Z,8132
2016-02-25T10:55:36.535Z,7312
2016-02-25T10:55:49.129Z,7524
2016-02-25T10:56:49.304Z,8928
2016-02-25T10:57:55.416Z,9380
2016-02-25T10:58:49.762Z,8524
2016-02-25T11:00:01.969Z,10352
2016-02-25T11:01:01.924Z,11168
2016-02-25T11:02:01.927Z,11196
2016-02-25T11:03:47.620Z,11100
2016-02-25T11:04:25.842Z,10112
2016-02-25T11:05:12.970Z,9928
2016-02-25T11:08:32.150Z,9700
2016-02-25T11:09:19.371Z,9184
2016-02-25T11:11:35.205Z,8172
2016-02-25T11:13:01.207Z,8008
2016-02-25T11:14:07.367Z,7788
2016-02-25T11:15:04.526Z,7712
2016-02-25T11:15:57.965Z,7432
2016-02-25T11:20:10.089Z,9224
2016-02-25T11:21:19.701Z,7624
2016-02-25T11:22:16.313Z,5000
2016-02-25T11:23:23.707Z,4384
2016-02-25T11:24:58.131Z,6568
2016-02-25T11:26:13.309Z,7052
2016-02-25T11:26:45.106Z,7220
2016-02-25T11:27:25.905Z,8016
2016-02-25T11:28:51.611Z,10092
2016-02-25T11:29:32.457Z,10700
2016-02-25T11:31:28.555Z,9936
2016-02-25T11:31:44.415Z,9828
2016-02-25T11:33:03.371Z,8372
2016-02-25T11:33:53.561Z,8412
2016-02-25T11:37:22.338Z,9756
2016-02-25T11:38:09.697Z,10004
2016-02-25T11:39:29.313Z,12304
2016-02-25T11:41:38.880Z,10708
2016-02-25T11:42:51.727Z,9960
2016-02-25T11:43:44.854Z,9948
2016-02-25T11:44:28.716Z,8408
2016-02-25T11:45:28.891Z,7264
2016-02-25T11:47:32.802Z,6556
2016-02-25T11:48:04.912Z,6288
2016-02-25T11:48:45.508Z,6096
2016-02-25T11:50:11.120Z,5736
2016-02-25T11:51:20.751Z,6960
2016-02-25T11:53:32.506Z,8056
2016-02-25T11:54:16.399Z,8716
2016-02-25T11:55:16.620Z,8916
2016-02-25T11:56:29.186Z,9828
2016-02-25T11:57:29.189Z,10820
2016-02-25T11:58:29.270Z,11980
2016-02-25T11:59:42.256Z,9304
2016-02-25T12:01:50.919Z,7652
2016-02-25T12:02:41.921Z,7568
2016-02-25T12:05:10.144Z,4764
2016-02-25T12:07:07.119Z,5728
2016-02-25T12:09:07.875Z,6116
2016-02-25T12:09:42.221Z,6388
2016-02-25T12:11:45.024Z,8152
2016-02-25T12:12:28.964Z,9356
2016-02-25T12:12:57.855Z,9616
2016-02-25T12:13:57.701Z,10144
2016-02-25T12:14:57.641Z,10860
2016-02-25T12:16:04.535Z,10748
2016-02-25T12:17:10.459Z,11008
2016-02-25T12:18:10.446Z,11552
2016-02-25T12:19:17.543Z,11116
2016-02-25T12:19:57.748Z,10844
2016-02-25T12:22:00.378Z,7532
2016-02-25T12:22:38.678Z,6608
2016-02-25T12:23:13.193Z,6636
2016-02-25T12:25:11.401Z,8148
2016-02-25T12:25:23.967Z,8704
2016-02-25T12:27:21.019Z,8284
2016-02-25T12:27:33.628Z,8300
2016-02-25T12:29:36.478Z,6868
2016-02-25T12:29:49.103Z,6912
2016-02-25T12:30:49.106Z,7976
2016-02-25T12:32:01.812Z,9200
2016-02-25T12:32:49.127Z,8812
2016-02-25T12:34:08.583Z,7668
2016-02-25T12:35:18.475Z,9104
2016-02-25T12:36:50.903Z,8768
2016-02-25T12:40:09.942Z,5912
2016-02-25T12:42:56.779Z,6588
2016-02-25T12:43:57.000Z,5984
2016-02-25T12:44:57.455Z,6380
2016-02-25T12:46:09.615Z,7440
2016-02-25T12:47:09.554Z,7388
2016-02-25T12:49:13.029Z,5952
2016-02-25T12:49:56.954Z,6304
2016-02-25T12:51:22.597Z,5208
2016-02-25T12:52:06.506Z,4532
2016-02-25T12:54:03.762Z,4984
2016-02-25T12:55:13.343Z,4920
2016-02-25T12:55:25.952Z,4856
2016-02-25T12:56:38.910Z,4568
2016-02-25T12:57:25.504Z,4596
2016-02-25T13:00:07.575Z,4784
2016-02-25T13:00:48.312Z,4868
2016-02-25T13:02:57.395Z,4772
2016-02-25T13:03:10.239Z,4540
2016-02-25T13:04:09.961Z,4680
2016-02-25T13:05:10.634Z,4308
2016-02-25T13:06:22.950Z,3784
2016-02-25T13:07:23.265Z,3916
2016-02-25T13:08:29.314Z,4716
2016-02-25T13:11:36.029Z,5700
2016-02-25T13:12:45.688Z,5728
2016-02-25T13:13:39.455Z,5724
2016-02-25T13:15:39.571Z,7740
2016-02-25T13:15:52.618Z,8928
2016-02-25T13:18:07.561Z,7296
2016-02-25T13:19:07.657Z,6180
2016-02-25T13:20:20.425Z,5784
2016-02-25T13:21:08.272Z,5800
2016-02-25T13:23:21.496Z,6456
2016-02-25T13:24:37.407Z,7316
2016-02-25T13:25:18.251Z,8440
2016-02-25T13:27:20.803Z,10296
2016-02-25T13:27:52.901Z,10204
2016-02-25T13:28:33.934Z,9108
2016-02-25T13:29:58.983Z,8356
2016-02-25T13:30:34.924Z,8176
2016-02-25T13:32:05.989Z,8336
2016-02-25T13:32:44.350Z,8372
2016-02-25T13:34:41.356Z,9112
2016-02-25T13:34:56.997Z,9332
2016-02-25T13:37:09.237Z,10364
2016-02-25T13:38:09.489Z,10468
2016-02-25T13:39:09.508Z,9644
2016-02-25T13:40:15.807Z,8892
2016-02-25T13:41:15.591Z,8048
2016-02-25T13:42:28.516Z,6288
2016-02-25T13:43:28.612Z,5744
2016-02-25T13:44:35.289Z,5760
2016-02-25T13:45:28.633Z,5292
2016-02-25T13:47:06.404Z,5648
2016-02-25T13:47:44.969Z,5440
2016-02-25T13:49:59.927Z,6152
2016-02-25T13:52:22.496Z,5908
2016-02-25T13:56:31.665Z,6148
2016-02-25T13:57:15.571Z,6492
2016-02-25T13:58:25.231Z,6860
2016-02-25T13:59:31.486Z,6892
2016-02-25T14:00:51.629Z,6884
2016-02-25T14:01:04.082Z,6976
2016-02-25T14:02:54.869Z,7596
2016-02-25T14:03:20.494Z,7660
2016-02-25T14:04:20.247Z,7740
2016-02-25T14:05:33.392Z,7508
2016-02-25T14:06:26.658Z,7292
2016-02-25T14:07:39.554Z,7172
2016-02-25T14:08:21.992Z,6880
2016-02-25T14:10:20.372Z,6080
2016-02-25T14:11:17.547Z,5860
2016-02-25T14:12:27.440Z,5576
2016-02-25T14:15:08.745Z,4444
2016-02-25T14:15:42.841Z,4332
2016-02-25T14:17:39.878Z,4852
2016-02-25T14:17:52.581Z,5456
2016-02-25T14:20:02.461Z,6832
2016-02-25T14:21:59.310Z,7052
2016-02-25T14:23:48.004Z,6880
2016-02-25T14:24:57.975Z,6556
2016-02-25T14:26:30.352Z,5136
2016-02-25T14:29:47.395Z,4824
2016-02-25T14:30:16.129Z,4788
2016-02-25T14:31:16.445Z,4972
2016-02-25T14:32:28.962Z,5212
2016-02-25T14:33:16.012Z,5796
2016-02-25T14:34:41.939Z,7016
2016-02-25T14:35:16.564Z,6948
2016-02-25T14:37:14.476Z,6464
2016-02-25T14:37:27.351Z,6452
2016-02-25T14:40:02.703Z,4328
2016-02-25T14:42:17.678Z,3044
2016-02-25T14:43:17.695Z,2736
2016-02-25T14:44:30.322Z,1780
2016-02-25T14:45:23.950Z,1400
2016-02-25T14:47:59.646Z,1536
2016-02-25T14:48:40.774Z,1724
2016-02-25T14:54:00.787Z,2700
2016-02-25T14:54:35.540Z,2764
2016-02-25T14:56:45.904Z,3388
2016-02-25T14:57:46.393Z,3680
2016-02-25T14:58:45.941Z,4044
2016-02-25T14:59:45.928Z,4456
2016-02-25T15:00:46.838Z,4860
2016-02-25T15:01:58.684Z,5592
2016-02-25T15:02:46.686Z,5628
2016-02-25T15:04:42.942Z,5256
2016-02-25T15:05:01.864Z,5176
2016-02-25T15:06:58.901Z,4756
2016-02-25T15:08:30.825Z,4432
2016-02-25T15:09:11.593Z,4388
2016-02-25T15:11:08.739Z,4564
2016-02-25T15:12:56.558Z,4684
2016-02-25T15:14:06.200Z,4780
2016-02-25T15:15:06.375Z,5036
2016-02-25T15:15:40.644Z,5144
2016-02-25T15:17:37.789Z,5276
2016-02-25T15:17:50.383Z,5292
2016-02-25T15:18:50.402Z,5264
2016-02-25T15:19:50.622Z,5056
2016-02-25T15:21:03.204Z,4756
2016-02-25T15:21:50.441Z,4628
2016-02-25T15:22:50.990Z,4532
2016-02-25T15:23:50.774Z,4500
2016-02-25T15:24:50.840Z,4520
2016-02-25T15:25:57.014Z,4424
2016-02-25T15:26:50.860Z,4424
2016-02-25T15:27:50.582Z,4468
2016-02-25T15:28:50.679Z,4560
2016-02-25T15:29:51.321Z,4548
2016-02-25T15:30:51.059Z,4532
2016-02-25T15:32:03.452Z,4364
2016-02-25T15:32:52.032Z,4360
2016-02-25T15:33:50.770Z,4312
2016-02-25T15:34:50.976Z,4208
2016-02-25T15:35:50.728Z,4236
2016-02-25T15:36:50.997Z,4076
2016-02-25T15:38:03.484Z,3916
2016-02-25T15:39:03.689Z,3740
2016-02-25T15:39:50.771Z,3648
2016-02-25T15:40:51.039Z,3444
2016-02-25T15:41:50.822Z,3280
2016-02-25T15:42:50.779Z,3260
2016-02-25T15:43:51.078Z,3388
2016-02-25T15:44:51.534Z,3536
2016-02-25T15:45:51.099Z,3544
2016-02-25T15:46:50.914Z,3556
2016-02-25T15:47:50.917Z,3604
2016-02-25T15:48:51.211Z,3548
2016-02-25T15:49:51.167Z,3424
2016-02-25T15:50:50.936Z,3236
2016-02-25T15:51:50.969Z,2964
2016-02-25T15:52:51.191Z,2644
2016-02-25T15:54:03.772Z,2508
2016-02-25T15:54:51.213Z,2508
2016-02-25T15:55:51.340Z,2636
2016-02-25T15:56:51.060Z,2816
2016-02-25T15:57:51.111Z,3040
2016-02-25T15:58:57.535Z,3120
2016-02-25T16:00:04.710Z,3092
2016-02-25T16:00:51.588Z,3044
2016-02-25T16:02:48.109Z,2500
2016-02-25T16:03:00.984Z,2448
2016-02-25T16:04:00.815Z,2328
2016-02-25T16:05:00.798Z,2268
2016-02-25T16:06:01.069Z,2220
2016-02-25T16:07:00.871Z,2156
2016-02-25T16:08:00.814Z,2084
2016-02-25T16:09:00.787Z,2032
2016-02-25T16:10:00.824Z,2004
2016-02-25T16:11:01.245Z,1968
2016-02-25T16:12:07.273Z,1856
2016-02-25T16:13:00.505Z,1796
2016-02-25T16:14:00.926Z,1744
2016-02-25T16:15:07.486Z,1680
2016-02-25T16:16:13.580Z,1572
2016-02-25T16:17:13.801Z,1488
2016-02-25T16:18:01.191Z,1384
2016-02-25T16:19:00.941Z,1172
2016-02-25T16:20:01.224Z,972
2016-02-25T16:21:00.930Z,824
2016-02-25T16:22:00.995Z,708